createdAt,value
2022-12-03T00:00:10.473Z,100332.97
2022-12-03T00:02:40.796Z,100330.78
2022-12-03T00:05:08.063Z,100333.06
2022-12-03T00:07:34.573Z,100340.56
2022-12-03T00:10:01.105Z,100333.00
2022-12-03T00:12:27.899Z,100328.47
2022-12-03T00:14:54.631Z,100322.06
2022-12-03T00:17:21.290Z,100321.44
2022-12-03T00:19:49.121Z,100318.19
2022-12-03T00:22:15.604Z,100321.25
2022-12-03T00:24:42.110Z,100329.56
2022-12-03T00:27:08.573Z,100321.06
2022-12-03T00:29:35.075Z,100322.13
2022-12-03T00:32:01.573Z,100317.63
2022-12-03T00:34:28.273Z,100314.75
2022-12-03T00:36:56.126Z,100317.66
2022-12-03T00:39:23.025Z,100307.06
2022-12-03T00:41:49.513Z,100305.06
2022-12-03T00:44:16.051Z,100314.63
2022-12-03T00:46:42.768Z,100315.38
2022-12-03T00:49:09.468Z,100307.69
2022-12-03T00:51:35.955Z,100309.66
2022-12-03T00:54:04.008Z,100311.00
2022-12-03T00:56:30.472Z,100315.13
2022-12-03T00:58:57.074Z,100305.13
2022-12-03T01:01:23.621Z,100310.38
2022-12-03T01:03:50.348Z,100308.97
2022-12-03T01:06:16.976Z,100314.97
2022-12-03T01:08:43.449Z,100297.47
2022-12-03T01:11:11.332Z,100303.41
2022-12-03T01:13:37.935Z,100315.72
2022-12-03T01:16:05.023Z,100306.22
2022-12-03T01:18:31.646Z,100308.16
2022-12-03T01:20:58.137Z,100303.59
2022-12-03T01:23:24.585Z,100318.59
2022-12-03T01:25:51.203Z,100315.97
2022-12-03T01:28:19.032Z,100322.72
2022-12-03T01:30:45.792Z,100326.91
2022-12-03T01:33:12.413Z,100323.88
2022-12-03T01:35:39.050Z,100317.88
2022-12-03T01:38:05.482Z,100323.91
2022-12-03T01:40:32.340Z,100313.75
2022-12-03T01:42:58.907Z,100318.06
2022-12-03T01:45:26.811Z,100328.06
2022-12-03T01:47:53.347Z,100325.97
2022-12-03T01:50:27.147Z,100317.00
2022-12-03T01:52:57.929Z,100319.44
2022-12-03T01:55:25.953Z,100316.72
2022-12-03T01:57:54.805Z,100312.91
2022-12-03T02:00:24.335Z,100313.31
2022-12-03T02:02:55.287Z,100305.66
2022-12-03T02:05:24.810Z,100315.41
2022-12-03T02:07:51.683Z,100315.06
2022-12-03T02:10:23.665Z,100320.09
2022-12-03T02:12:54.444Z,100310.88
2022-12-03T02:15:21.228Z,100319.06
2022-12-03T02:17:47.917Z,100305.13
2022-12-03T02:20:16.200Z,100312.28
2022-12-03T02:22:48.480Z,100319.22
2022-12-03T02:25:19.272Z,100309.19
2022-12-03T02:27:46.994Z,100311.25
2022-12-03T02:30:15.920Z,100308.63
2022-12-03T02:32:42.608Z,100310.31
2022-12-03T02:35:13.944Z,100309.53
2022-12-03T02:37:41.527Z,100294.81
2022-12-03T02:40:11.805Z,100303.47
2022-12-03T02:42:42.499Z,100297.88
2022-12-03T02:45:13.712Z,100293.63
2022-12-03T02:47:43.495Z,100291.31
2022-12-03T02:50:12.792Z,100275.34
2022-12-03T02:52:40.537Z,100296.28
2022-12-03T02:55:08.873Z,100282.81
2022-12-03T02:57:37.174Z,100280.84
2022-12-03T03:00:07.145Z,100277.81
2022-12-03T03:02:34.082Z,100287.22
2022-12-03T03:05:01.967Z,100273.72
2022-12-03T03:07:28.813Z,100288.84
2022-12-03T03:09:55.726Z,100277.75
2022-12-03T03:12:22.276Z,100282.25
2022-12-03T03:14:48.793Z,100282.16
2022-12-03T03:17:17.049Z,100300.31
2022-12-03T03:19:43.539Z,100279.34
2022-12-03T03:22:10.588Z,100281.31
2022-12-03T03:24:37.929Z,100284.13
2022-12-03T03:27:05.053Z,100283.97
2022-12-03T03:29:33.150Z,100277.00
2022-12-03T03:32:01.078Z,100278.91
2022-12-03T03:34:32.536Z,100277.97
2022-12-03T03:36:59.096Z,100283.47
2022-12-03T03:39:25.637Z,100273.91
2022-12-03T03:41:52.553Z,100278.44
2022-12-03T03:44:19.091Z,100284.13
2022-12-03T03:46:45.677Z,100278.50
2022-12-03T03:49:13.031Z,100275.34
2022-12-03T03:51:41.401Z,100278.75
2022-12-03T03:54:08.352Z,100273.94
2022-12-03T03:56:35.545Z,100276.94
2022-12-03T03:59:02.803Z,100271.19
2022-12-03T04:01:30.163Z,100276.22
2022-12-03T04:03:56.845Z,100270.31
2022-12-03T04:06:23.416Z,100266.28
2022-12-03T04:08:51.525Z,100267.84
2022-12-03T04:11:18.073Z,100273.53
2022-12-03T04:13:44.984Z,100270.94
2022-12-03T04:16:11.453Z,100271.63
2022-12-03T04:18:38.282Z,100275.53
2022-12-03T04:21:04.909Z,100266.81
2022-12-03T04:23:31.426Z,100259.63
2022-12-03T04:25:59.250Z,100265.63
2022-12-03T04:28:25.955Z,100265.50
2022-12-03T04:30:53.061Z,100257.13
2022-12-03T04:33:19.573Z,100255.69
2022-12-03T04:35:46.494Z,100256.41
2022-12-03T04:38:25.261Z,100250.53
2022-12-03T04:40:51.733Z,100244.31
2022-12-03T04:43:19.623Z,100249.63
2022-12-03T04:45:46.138Z,100246.50
2022-12-03T04:48:14.753Z,100233.78
2022-12-03T04:51:31.586Z,100250.97
2022-12-03T04:54:08.577Z,100249.72
2022-12-03T04:56:35.130Z,100236.31
2022-12-03T04:59:03.233Z,100245.44
2022-12-03T05:01:46.659Z,100226.63
2022-12-03T05:04:14.290Z,100235.22
2022-12-03T05:06:41.277Z,100234.78
2022-12-03T05:09:07.799Z,100241.69
2022-12-03T05:11:35.044Z,100241.25
2022-12-03T05:14:02.979Z,100241.59
2022-12-03T05:16:29.654Z,100235.38
2022-12-03T05:18:56.202Z,100245.75
2022-12-03T05:21:22.873Z,100250.47
2022-12-03T05:23:49.674Z,100242.03
2022-12-03T05:26:16.522Z,100236.16
2022-12-03T05:28:43.040Z,100242.41
2022-12-03T05:31:11.080Z,100241.00
2022-12-03T05:33:42.569Z,100237.78
2022-12-03T05:36:10.891Z,100241.50
2022-12-03T05:38:37.371Z,100240.22
2022-12-03T05:41:03.919Z,100250.41
2022-12-03T05:43:30.464Z,100240.59
2022-12-03T05:45:57.021Z,100237.69
2022-12-03T05:48:24.918Z,100242.81
2022-12-03T05:50:51.391Z,100235.63
2022-12-03T05:53:18.408Z,100238.75
2022-12-03T05:55:45.125Z,100231.44
2022-12-03T05:58:11.566Z,100238.13
2022-12-03T06:00:42.441Z,100232.09
2022-12-03T06:03:10.323Z,100245.03
2022-12-03T06:05:38.639Z,100238.00
2022-12-03T06:08:05.338Z,100243.69
2022-12-03T06:10:31.902Z,100241.69
2022-12-03T06:12:58.613Z,100239.13
2022-12-03T06:15:25.104Z,100255.16
2022-12-03T06:17:51.808Z,100241.94
2022-12-03T06:20:19.894Z,100244.06
2022-12-03T06:22:47.982Z,100255.34
2022-12-03T06:25:15.398Z,100249.22
2022-12-03T06:27:42.686Z,100244.06
2022-12-03T06:30:12.292Z,100234.66
2022-12-03T06:32:38.957Z,100233.97
2022-12-03T06:35:05.885Z,100244.41
2022-12-03T06:37:32.345Z,100241.63
2022-12-03T06:40:00.255Z,100237.81
2022-12-03T06:42:26.764Z,100236.56
2022-12-03T06:44:54.141Z,100241.97
2022-12-03T06:47:20.873Z,100233.16
2022-12-03T06:49:47.468Z,100229.69
2022-12-03T06:52:13.899Z,100237.72
2022-12-03T06:54:40.583Z,100233.81
2022-12-03T06:57:08.405Z,100233.72
2022-12-03T06:59:35.012Z,100222.91
2022-12-03T07:02:01.557Z,100246.00
2022-12-03T07:04:28.104Z,100224.94
2022-12-03T07:06:54.986Z,100235.53
2022-12-03T07:09:21.442Z,100235.69
2022-12-03T07:11:47.925Z,100231.19
2022-12-03T07:14:15.783Z,100223.84
2022-12-03T07:16:42.334Z,100230.63
2022-12-03T07:19:09.306Z,100229.81
2022-12-03T07:21:35.834Z,100226.19
2022-12-03T07:24:02.287Z,100234.00
2022-12-03T07:26:28.895Z,100234.38
2022-12-03T07:28:55.406Z,100224.81
2022-12-03T07:31:23.345Z,100231.75
2022-12-03T07:33:49.896Z,100224.91
2022-12-03T07:36:16.384Z,100223.81
2022-12-03T07:38:42.932Z,100225.81
2022-12-03T07:41:09.585Z,100230.59
2022-12-03T07:43:36.056Z,100236.78
2022-12-03T07:46:02.734Z,100231.50
2022-12-03T07:48:30.574Z,100216.69
2022-12-03T07:50:57.089Z,100228.00
2022-12-03T07:53:23.598Z,100241.53
2022-12-03T07:55:50.083Z,100230.25
2022-12-03T07:58:16.581Z,100229.47
2022-12-03T08:00:43.141Z,100224.88
2022-12-03T08:03:09.691Z,100223.06
2022-12-03T08:05:37.685Z,100228.84
2022-12-03T08:08:04.480Z,100232.91
2022-12-03T08:10:31.228Z,100236.50
2022-12-03T08:12:59.371Z,100232.03
2022-12-03T08:15:30.194Z,100235.53
2022-12-03T08:18:01.050Z,100232.38
2022-12-03T08:20:31.329Z,100228.63
2022-12-03T08:22:59.329Z,100235.47
2022-12-03T08:25:27.960Z,100232.28
2022-12-03T08:28:00.121Z,100233.91
2022-12-03T08:30:26.619Z,100235.53
2022-12-03T08:32:53.750Z,100232.56
2022-12-03T08:35:23.104Z,100229.09
2022-12-03T08:37:56.878Z,100225.50
2022-12-03T08:40:32.850Z,100214.44
2022-12-03T08:42:59.333Z,100221.78
2022-12-03T08:45:35.160Z,100224.13
2022-12-03T08:48:05.745Z,100220.06
2022-12-03T08:50:36.002Z,100223.09
2022-12-03T08:53:23.307Z,100228.63
2022-12-03T08:55:54.685Z,100231.59
2022-12-03T08:58:23.209Z,100233.09
2022-12-03T09:00:53.974Z,100229.38
2022-12-03T09:03:20.505Z,100229.34
2022-12-03T09:05:46.982Z,100227.19
2022-12-03T09:08:13.546Z,100228.28
2022-12-03T09:10:40.079Z,100214.97
2022-12-03T09:13:08.110Z,100221.63
2022-12-03T09:15:34.603Z,100223.91
2022-12-03T09:18:01.427Z,100224.41
2022-12-03T09:20:27.957Z,100227.66
2022-12-03T09:22:54.630Z,100220.19
2022-12-03T09:25:21.117Z,100230.16
2022-12-03T09:27:47.620Z,100229.78
2022-12-03T09:30:16.195Z,100232.69
2022-12-03T09:32:42.677Z,100228.00
2022-12-03T09:35:11.913Z,100228.34
2022-12-03T09:37:38.546Z,100230.31
2022-12-03T09:40:06.469Z,100236.28
2022-12-03T09:42:33.479Z,100224.13
2022-12-03T09:45:01.636Z,100224.22
2022-12-03T09:47:39.077Z,100221.16
2022-12-03T09:50:06.817Z,100224.59
2022-12-03T09:52:34.528Z,100211.25
2022-12-03T09:55:05.933Z,100220.63
2022-12-03T09:57:32.442Z,100212.94
2022-12-03T09:59:59.327Z,100216.91
2022-12-03T10:02:29.477Z,100222.16
2022-12-03T10:04:58.859Z,100220.00
2022-12-03T10:07:26.168Z,100228.47
2022-12-03T10:09:53.290Z,100213.78
2022-12-03T10:12:23.416Z,100227.97
2022-12-03T10:14:50.709Z,100220.25
2022-12-03T10:17:17.709Z,100205.94
2022-12-03T10:19:44.485Z,100213.38
2022-12-03T10:22:12.311Z,100202.91
2022-12-03T10:24:41.251Z,100197.78
2022-12-03T10:27:24.755Z,100197.19
2022-12-03T10:29:56.109Z,100198.84
2022-12-03T10:32:25.632Z,100186.97
2022-12-03T10:35:07.676Z,100188.78
2022-12-03T10:37:35.672Z,100174.16
2022-12-03T10:40:05.450Z,100172.41
2022-12-03T10:42:33.518Z,100168.84
2022-12-03T10:45:09.205Z,100159.38
2022-12-03T10:47:35.835Z,100161.50
2022-12-03T10:50:05.521Z,100147.88
2022-12-03T10:52:32.504Z,100136.31
2022-12-03T10:55:00.617Z,100147.50
2022-12-03T10:57:27.128Z,100155.38
2022-12-03T10:59:53.625Z,100143.53
2022-12-03T11:02:24.176Z,100136.91
2022-12-03T11:04:52.007Z,100130.47
2022-12-03T11:07:21.037Z,100127.66
2022-12-03T11:09:49.786Z,100128.97
2022-12-03T11:12:21.640Z,100119.22
2022-12-03T11:15:01.944Z,100120.09
2022-12-03T11:17:43.606Z,100126.25
2022-12-03T11:20:15.775Z,100127.63
2022-12-03T11:22:47.786Z,100125.50
2022-12-03T11:25:48.090Z,100130.91
2022-12-03T11:28:36.816Z,100126.47
2022-12-03T11:31:06.627Z,100125.09
2022-12-03T11:33:34.936Z,100117.78
2022-12-03T11:36:17.548Z,100117.06
2022-12-03T11:38:52.928Z,100120.41
2022-12-03T11:41:23.453Z,100108.34
2022-12-03T11:44:25.804Z,100102.00
2022-12-03T11:46:53.490Z,100094.81
2022-12-03T11:49:30.110Z,100096.63
2022-12-03T11:51:57.197Z,100097.63
2022-12-03T11:54:24.354Z,100104.16
2022-12-03T11:56:52.931Z,100099.41
2022-12-03T11:59:20.755Z,100088.91
2022-12-03T12:01:47.510Z,100086.91
2022-12-03T12:04:30.091Z,100085.13
2022-12-03T12:06:56.753Z,100082.34
2022-12-03T12:09:48.315Z,100074.13
2022-12-03T12:12:19.057Z,100074.44
2022-12-03T12:14:47.234Z,100070.66
2022-12-03T12:17:30.471Z,100071.03
2022-12-03T12:20:12.785Z,100073.25
2022-12-03T12:22:39.323Z,100061.41
2022-12-03T12:25:36.460Z,100057.63
2022-12-03T12:28:03.120Z,100058.25
2022-12-03T12:30:31.133Z,100058.69
2022-12-03T12:33:11.050Z,100058.72
2022-12-03T12:35:37.891Z,100045.13
2022-12-03T12:38:14.307Z,100044.03
2022-12-03T12:40:42.922Z,100040.22
2022-12-03T12:43:24.169Z,100044.63
2022-12-03T12:45:53.635Z,100038.88
2022-12-03T12:48:25.890Z,100031.16
2022-12-03T12:50:58.782Z,100040.16
2022-12-03T12:53:27.404Z,100044.00
2022-12-03T12:55:56.733Z,100032.03
2022-12-03T12:58:23.500Z,100034.31
2022-12-03T13:00:53.724Z,100037.41
2022-12-03T13:03:23.145Z,100022.44
2022-12-03T13:05:51.413Z,100034.81
2022-12-03T13:08:22.568Z,100026.94
2022-12-03T13:10:50.532Z,100023.94
2022-12-03T13:13:43.614Z,100025.44
2022-12-03T13:16:18.795Z,100024.19
2022-12-03T13:18:47.170Z,100025.78
2022-12-03T13:21:20.840Z,100022.56
2022-12-03T13:23:47.819Z,100012.63
2022-12-03T13:26:32.781Z,100022.00
2022-12-03T13:29:10.823Z,100014.50
2022-12-03T13:31:48.445Z,100018.28
2022-12-03T13:34:19.944Z,100011.31
2022-12-03T13:36:51.962Z,100016.72
2022-12-03T13:39:27.249Z,100018.94
2022-12-03T13:41:55.062Z,100015.22
2022-12-03T13:44:21.559Z,100007.47
2022-12-03T13:46:49.778Z,100006.47
2022-12-03T13:49:19.954Z,100007.97
2022-12-03T13:51:46.914Z,99997.44
2022-12-03T13:54:20.176Z,100008.63
2022-12-03T13:56:46.984Z,99998.13
2022-12-03T13:59:13.655Z,99996.25
2022-12-03T14:01:43.419Z,99993.97
2022-12-03T14:04:12.111Z,99991.56
2022-12-03T14:06:38.739Z,99992.94
2022-12-03T14:09:05.458Z,99989.91
2022-12-03T14:11:32.101Z,99993.44
2022-12-03T14:13:58.766Z,99987.91
2022-12-03T14:16:25.429Z,99984.97
2022-12-03T14:18:52.166Z,99980.13
2022-12-03T14:21:20.185Z,99986.56
2022-12-03T14:23:46.665Z,99992.59
2022-12-03T14:26:13.278Z,99990.13
2022-12-03T14:28:39.752Z,99996.91
2022-12-03T14:31:06.477Z,99994.13
2022-12-03T14:33:33.061Z,99982.63
2022-12-03T14:35:59.519Z,99985.88
2022-12-03T14:38:27.596Z,99991.38
2022-12-03T14:40:54.207Z,99991.16
2022-12-03T14:43:20.657Z,99991.47
2022-12-03T14:45:47.217Z,99982.25
2022-12-03T14:48:13.865Z,99993.34
2022-12-03T14:50:40.412Z,99995.22
2022-12-03T14:53:06.961Z,99990.78
2022-12-03T14:55:36.495Z,99993.69
2022-12-03T14:58:02.988Z,99996.06
2022-12-03T15:00:29.620Z,99991.75
2022-12-03T15:02:58.147Z,99985.22
2022-12-03T15:05:28.995Z,99979.78
2022-12-03T15:07:56.259Z,99982.53
2022-12-03T15:10:23.101Z,99982.91
2022-12-03T15:12:51.092Z,99982.91
2022-12-03T15:15:17.596Z,99988.34
2022-12-03T15:17:44.077Z,99985.97
2022-12-03T15:20:11.948Z,99981.72
2022-12-03T15:22:38.409Z,99982.38
2022-12-03T15:25:05.686Z,99984.06
2022-12-03T15:27:32.333Z,99985.31
2022-12-03T15:30:00.364Z,99989.44
2022-12-03T15:32:26.898Z,99987.47
2022-12-03T15:34:53.768Z,99987.63
2022-12-03T15:37:20.264Z,99981.50
2022-12-03T15:39:48.897Z,99990.25
2022-12-03T15:42:15.668Z,99988.34
2022-12-03T15:44:42.179Z,99994.06
2022-12-03T15:47:10.197Z,99985.78
2022-12-03T15:49:36.737Z,99994.25
2022-12-03T15:52:03.380Z,99984.97
2022-12-03T15:54:29.915Z,99992.63
2022-12-03T15:56:57.631Z,99986.69
2022-12-03T15:59:24.360Z,99982.47
2022-12-03T16:01:51.025Z,99988.91
2022-12-03T16:04:19.188Z,99985.84
2022-12-03T16:06:45.725Z,99977.59
2022-12-03T16:09:12.397Z,99989.09
2022-12-03T16:11:38.869Z,99988.50
2022-12-03T16:14:05.641Z,99987.22
2022-12-03T16:16:32.163Z,99990.41
2022-12-03T16:18:58.633Z,99995.88
2022-12-03T16:21:27.477Z,99994.19
2022-12-03T16:23:54.321Z,99983.41
2022-12-03T16:26:20.990Z,99982.91
2022-12-03T16:28:47.503Z,99989.56
2022-12-03T16:31:14.133Z,99980.06
2022-12-03T16:33:40.683Z,99984.09
2022-12-03T16:36:07.972Z,99983.44
2022-12-03T16:38:35.836Z,99984.09
2022-12-03T16:41:02.352Z,99985.44
2022-12-03T16:43:29.036Z,99985.72
2022-12-03T16:45:55.568Z,99989.47
2022-12-03T16:48:22.880Z,99993.13
2022-12-03T16:50:49.317Z,99990.13
2022-12-03T16:53:15.858Z,99980.81
2022-12-03T16:55:46.571Z,99983.63
2022-12-03T16:58:14.738Z,99988.91
2022-12-03T17:00:41.255Z,99980.72
2022-12-03T17:03:07.795Z,99981.41
2022-12-03T17:05:34.645Z,99978.47
2022-12-03T17:08:01.170Z,99979.66
2022-12-03T17:10:27.724Z,99972.28
2022-12-03T17:13:11.520Z,99979.47
2022-12-03T17:15:38.663Z,99976.16
2022-12-03T17:18:06.201Z,99973.91
2022-12-03T17:20:33.218Z,99969.41
2022-12-03T17:23:00.335Z,99981.16
2022-12-03T17:25:27.519Z,99989.81
2022-12-03T17:27:55.381Z,99971.31
2022-12-03T17:30:21.919Z,99965.16
2022-12-03T17:32:48.401Z,99965.09
2022-12-03T17:35:14.898Z,99972.81
2022-12-03T17:37:41.401Z,99972.88
2022-12-03T17:40:10.670Z,99961.16
2022-12-03T17:46:31.241Z,99961.25
2022-12-03T17:50:18.990Z,99948.38
2022-12-03T17:52:45.581Z,99960.44
2022-12-03T17:55:24.979Z,99951.09
2022-12-03T17:57:57.961Z,99956.59
2022-12-03T18:00:24.432Z,99949.81
2022-12-03T18:02:52.375Z,99941.28
2022-12-03T18:05:43.362Z,99945.25
2022-12-03T18:08:53.773Z,99942.34
2022-12-03T18:11:25.764Z,99934.63
2022-12-03T18:13:52.593Z,99938.88
2022-12-03T18:16:19.174Z,99940.75
2022-12-03T18:19:06.186Z,99927.84
2022-12-03T18:21:33.586Z,99941.06
2022-12-03T18:24:00.203Z,99941.28
2022-12-03T18:26:26.704Z,99941.75
2022-12-03T18:29:15.451Z,99923.84
2022-12-03T18:31:59.146Z,99927.69
2022-12-03T18:34:42.255Z,99921.38
2022-12-03T18:37:27.399Z,99922.88
2022-12-03T18:40:20.013Z,99913.78
2022-12-03T18:43:37.551Z,99920.91
2022-12-03T18:46:31.248Z,99926.53
2022-12-03T18:49:28.696Z,99914.44
2022-12-03T18:52:00.132Z,99929.22
2022-12-03T18:54:26.940Z,99929.97
2022-12-03T18:56:53.416Z,99927.28
2022-12-03T19:03:04.110Z,99910.22
2022-12-03T19:05:19.815Z,99937.81
2022-12-03T19:07:47.895Z,99921.59
2022-12-03T19:10:32.769Z,99928.56
2022-12-03T19:13:02.547Z,99920.97
2022-12-03T19:15:42.152Z,99913.78
2022-12-03T19:18:08.893Z,99919.03
2022-12-03T19:20:53.920Z,99904.06
2022-12-03T19:23:22.714Z,99920.94
2022-12-03T19:25:57.112Z,99914.50
2022-12-03T19:28:26.140Z,99924.31
2022-12-03T19:30:59.136Z,99920.50
2022-12-03T19:33:32.987Z,99933.09
2022-12-03T19:36:00.774Z,99932.06
2022-12-03T19:38:30.227Z,99929.41
2022-12-03T19:41:20.009Z,99924.50
2022-12-03T19:44:20.739Z,99915.94
2022-12-03T19:47:14.528Z,99923.84
2022-12-03T19:49:41.071Z,99938.16
2022-12-03T19:52:07.678Z,99932.63
2022-12-03T19:54:35.836Z,99930.28
2022-12-03T19:57:02.393Z,99931.59
2022-12-03T19:59:28.842Z,99940.13
2022-12-03T20:02:56.627Z,99923.94
2022-12-03T20:05:23.246Z,99936.56
2022-12-03T20:07:49.788Z,99930.19
2022-12-03T20:10:17.916Z,99932.97
2022-12-03T20:12:44.466Z,99932.06
2022-12-03T20:15:12.509Z,99932.84
2022-12-03T20:17:55.409Z,99910.50
2022-12-03T20:20:22.522Z,99928.34
2022-12-03T20:23:17.802Z,99941.69
2022-12-03T20:25:49.620Z,99924.19
2022-12-03T20:28:16.125Z,99930.06
2022-12-03T20:30:56.965Z,99919.81
2022-12-03T20:36:51.793Z,99919.06
2022-12-03T20:39:18.375Z,99923.34
2022-12-03T20:42:02.333Z,99919.63
2022-12-03T20:44:28.906Z,99914.31
2022-12-03T20:47:10.103Z,99910.47
2022-12-03T20:53:39.641Z,99911.44
2022-12-03T20:56:17.927Z,99913.31
2022-12-03T20:59:01.607Z,99906.94
2022-12-03T21:01:36.591Z,99907.91
2022-12-03T21:04:10.319Z,99902.72
2022-12-03T21:06:45.461Z,99896.72
2022-12-03T21:09:22.595Z,99905.06
2022-12-03T21:12:18.714Z,99888.63
2022-12-03T21:14:47.697Z,99912.44
2022-12-03T21:17:33.122Z,99895.25
2022-12-03T21:19:59.802Z,99903.72
2022-12-03T21:22:38.372Z,99890.28
2022-12-03T21:25:05.769Z,99892.16
2022-12-03T21:27:32.444Z,99900.75
2022-12-03T21:30:00.270Z,99894.94
2022-12-03T21:32:26.903Z,99895.94
2022-12-03T21:34:53.370Z,99902.63
2022-12-03T21:37:19.829Z,99908.72
2022-12-03T21:39:46.365Z,99896.47
2022-12-03T21:42:25.971Z,99908.72
2022-12-03T21:45:00.698Z,99898.50
2022-12-03T21:47:29.907Z,99900.50
2022-12-03T21:50:00.372Z,99901.41
2022-12-03T21:52:29.940Z,99894.53
2022-12-03T21:55:04.680Z,99892.84
2022-12-03T21:57:35.287Z,99890.72
2022-12-03T22:00:04.816Z,99893.78
2022-12-03T22:02:31.419Z,99900.66
2022-12-03T22:04:58.037Z,99896.41
2022-12-03T22:07:24.854Z,99889.53
2022-12-03T22:09:51.352Z,99896.03
2022-12-03T22:12:17.844Z,99891.88
2022-12-03T22:14:44.321Z,99889.22
2022-12-03T22:17:12.300Z,99894.50
2022-12-03T22:19:38.814Z,99891.91
2022-12-03T22:22:05.364Z,99895.34
2022-12-03T22:24:31.891Z,99895.25
2022-12-03T22:26:58.637Z,99891.31
2022-12-03T22:29:25.093Z,99885.31
2022-12-03T22:31:51.603Z,99883.16
2022-12-03T22:34:19.528Z,99884.03
2022-12-03T22:36:46.031Z,99873.59
2022-12-03T22:39:12.554Z,99879.44
2022-12-03T22:41:39.224Z,99870.34
2022-12-03T22:44:05.866Z,99883.38
2022-12-03T22:46:32.833Z,99883.91
2022-12-03T22:49:06.458Z,99884.59
2022-12-03T22:51:35.369Z,99885.34
2022-12-03T22:54:02.021Z,99873.75
2022-12-03T22:56:29.977Z,99879.69
2022-12-03T22:58:56.453Z,99865.75
2022-12-03T23:01:25.715Z,99872.47
2022-12-03T23:03:52.394Z,99868.34
2022-12-03T23:06:19.744Z,99857.78
2022-12-03T23:08:47.821Z,99859.69
2022-12-03T23:11:17.152Z,99862.94
2022-12-03T23:13:43.653Z,99868.81
2022-12-03T23:16:15.087Z,99860.06
2022-12-03T23:18:41.871Z,99852.50
2022-12-03T23:21:08.755Z,99861.63
2022-12-03T23:23:35.221Z,99857.84
2022-12-03T23:26:06.255Z,99856.13
2022-12-03T23:28:34.389Z,99846.78
2022-12-03T23:31:01.223Z,99845.00
2022-12-03T23:33:28.490Z,99855.19
2022-12-03T23:35:55.305Z,99835.22
2022-12-03T23:38:22.014Z,99843.56
2022-12-03T23:40:48.747Z,99837.19
2022-12-03T23:43:16.574Z,99840.91
2022-12-03T23:45:43.592Z,99844.88
2022-12-03T23:48:10.111Z,99844.34
2022-12-03T23:50:39.173Z,99848.28
2022-12-03T23:53:05.635Z,99850.16
2022-12-03T23:55:32.244Z,99853.13
2022-12-03T23:57:58.861Z,99840.09
